Time;durP1;ratioP1;P1;durP2;ratioP2;P2;SDS_P1;SDS_P2;PMS_P1;PMS_P2;Temp;Humidity;BMP_temperature;BMP_pressure;BME280_temperature;BME280_humidity;BME280_pressure;Samples;Min_cycle;Max_cycle;Signal;HPM_P1;HPM_P2
2022/09/12 00:00:30;;;;;;;18.92;16.42;;;15.80;86.00;;;;;;4977050;28;20394;-81
2022/09/12 00:02:57;;;;;;;18.60;16.50;;;15.70;86.00;;;;;;4980238;28;20467;-80
2022/09/12 00:05:23;;;;;;;18.50;16.55;;;15.70;86.00;;;;;;4975961;28;20437;-80
2022/09/12 00:07:49;;;;;;;18.35;16.13;;;15.80;86.00;;;;;;4977976;28;20043;-81
2022/09/12 00:10:16;;;;;;;17.25;15.30;;;15.70;86.10;;;;;;4976292;28;20334;-79
2022/09/12 00:12:41;;;;;;;16.88;14.98;;;15.60;86.10;;;;;;4975458;28;20170;-80
2022/09/12 00:15:07;;;;;;;17.35;15.50;;;15.70;85.90;;;;;;4975696;28;20049;-80
2022/09/12 00:17:34;;;;;;;17.35;15.55;;;15.70;85.90;;;;;;4981079;28;20034;-80
2022/09/12 00:19:59;;;;;;;18.83;16.85;;;15.70;85.80;;;;;;4976744;28;20046;-80
2022/09/12 00:22:25;;;;;;;19.38;17.40;;;15.70;85.90;;;;;;4976717;28;20120;-80
2022/09/12 00:24:51;;;;;;;18.92;15.65;;;15.70;85.90;;;;;;4976158;28;20038;-80
2022/09/12 00:27:16;;;;;;;19.38;15.05;;;15.70;85.80;;;;;;4974882;28;20109;-80
2022/09/12 00:29:42;;;;;;;17.95;15.48;;;15.70;85.70;;;;;;4974063;28;20092;-80
2022/09/12 00:32:08;;;;;;;18.55;16.55;;;15.70;85.60;;;;;;4977508;28;20446;-80
2022/09/12 00:34:34;;;;;;;17.63;15.75;;;15.70;85.50;;;;;;4978060;28;20439;-80
2022/09/12 00:37:00;;;;;;;17.70;15.68;;;15.60;85.50;;;;;;4979508;28;20039;-80
2022/09/12 00:39:26;;;;;;;17.83;15.93;;;15.60;85.60;;;;;;4964714;28;20109;-80
2022/09/12 00:41:51;;;;;;;17.17;15.38;;;15.60;85.70;;;;;;4963775;28;20034;-80
2022/09/12 00:44:20;;;;;;;17.58;15.50;;;15.60;85.60;;;;;;4962724;28;20034;-80
2022/09/12 00:46:49;;;;;;;17.15;15.30;;;15.60;85.80;;;;;;4960028;28;20043;-80
2022/09/12 00:49:22;;;;;;;18.15;15.93;;;15.60;85.80;;;;;;4954367;28;20046;-80
2022/09/12 00:51:54;;;;;;;17.90;15.85;;;15.50;85.90;;;;;;4979136;28;20056;-80
2022/09/12 00:54:26;;;;;;;17.83;14.63;;;15.50;86.10;;;;;;4976646;28;20030;-80
2022/09/12 00:56:56;;;;;;;17.33;15.63;;;15.50;86.10;;;;;;4978259;28;20065;-80
2022/09/12 00:59:26;;;;;;;18.60;15.68;;;15.50;85.90;;;;;;4989654;28;20599;-80
2022/09/12 01:01:52;;;;;;;16.38;14.73;;;15.50;85.70;;;;;;4976011;28;20381;-80
2022/09/12 01:04:21;;;;;;;16.83;15.10;;;15.40;85.80;;;;;;4975912;28;21572;-80
2022/09/12 01:06:48;;;;;;;17.10;15.30;;;15.40;85.90;;;;;;4983921;28;20390;-80
2022/09/12 01:09:18;;;;;;;19.00;16.13;;;15.40;86.00;;;;;;4974244;28;20149;-80
2022/09/12 01:11:45;;;;;;;20.98;16.60;;;15.50;86.10;;;;;;4973623;28;20047;-80
2022/09/12 01:14:13;;;;;;;20.05;17.17;;;15.40;86.30;;;;;;4975398;28;20035;-80
2022/09/12 01:16:39;;;;;;;17.48;14.98;;;15.40;86.30;;;;;;4978149;28;20042;-80
2022/09/12 01:19:23;;;;;;;19.35;15.35;;;15.40;86.30;;;;;;4974643;28;20362;-80
2022/09/12 01:22:20;;;;;;;18.52;14.98;;;15.40;86.10;;;;;;4977056;28;20050;-80
2022/09/12 01:25:05;;;;;;;17.45;15.57;;;15.30;86.10;;;;;;4975123;28;20026;-80
2022/09/12 01:28:07;;;;;;;18.70;16.33;;;15.30;86.20;;;;;;4962989;28;20057;-80
2022/09/12 01:30:54;;;;;;;19.52;17.02;;;15.20;86.30;;;;;;4955518;28;20351;-80
2022/09/12 01:34:00;;;;;;;17.98;15.80;;;15.10;86.60;;;;;;4956937;28;20027;-80
2022/09/12 01:36:50;;;;;;;17.50;15.30;;;15.10;86.60;;;;;;4955292;28;20114;-80
2022/09/12 01:39:34;;;;;;;19.42;16.25;;;15.10;86.70;;;;;;4954807;28;20037;-80
2022/09/12 01:41:59;;;;;;;20.45;16.88;;;15.20;86.80;;;;;;4954613;28;20046;-80
2022/09/12 01:44:31;;;;;;;18.42;16.10;;;15.10;86.80;;;;;;4950939;28;20046;-80
2022/09/12 01:47:07;;;;;;;20.50;17.58;;;15.10;86.90;;;;;;4957429;28;20030;-80
2022/09/12 01:49:45;;;;;;;18.85;16.50;;;15.10;86.90;;;;;;4960046;28;20043;-80
2022/09/12 01:52:21;;;;;;;19.83;16.83;;;15.10;87.00;;;;;;4967345;28;20030;-80
2022/09/12 01:54:54;;;;;;;18.80;16.80;;;15.10;87.00;;;;;;4974906;28;21370;-80
2022/09/12 01:57:28;;;;;;;18.30;16.23;;;15.10;87.10;;;;;;4974523;28;20038;-79
2022/09/12 02:00:00;;;;;;;18.73;16.73;;;15.00;87.30;;;;;;4976985;28;20051;-81
2022/09/12 02:02:37;;;;;;;18.15;15.88;;;15.00;87.30;;;;;;4962875;28;20076;-80
2022/09/12 02:05:26;;;;;;;17.20;15.45;;;15.00;87.20;;;;;;4955756;28;20098;-79
2022/09/12 02:08:21;;;;;;;17.98;15.52;;;15.00;87.00;;;;;;4956841;28;20163;-80
2022/09/12 02:10:53;;;;;;;17.30;15.50;;;15.00;87.10;;;;;;4956618;28;20470;-80
2022/09/12 02:13:34;;;;;;;19.75;16.65;;;14.90;87.20;;;;;;4962741;28;20043;-80
2022/09/12 02:16:09;;;;;;;19.15;16.95;;;14.90;87.20;;;;;;4973654;28;20164;-80
2022/09/12 02:18:39;;;;;;;18.02;16.13;;;14.80;87.30;;;;;;4956553;28;20035;-80
2022/09/12 02:21:06;;;;;;;18.90;15.27;;;14.70;87.50;;;;;;4957766;28;20038;-81
2022/09/12 02:23:33;;;;;;;16.77;14.98;;;14.70;87.60;;;;;;4956355;28;20045;-80
2022/09/12 02:26:09;;;;;;;18.15;16.00;;;14.70;87.70;;;;;;4958533;28;20043;-80
2022/09/12 02:28:39;;;;;;;16.17;14.52;;;14.70;87.80;;;;;;4961379;28;20535;-80
2022/09/12 02:31:47;;;;;;;17.63;15.75;;;14.60;87.80;;;;;;4957885;28;20546;-80
2022/09/12 02:34:39;;;;;;;18.35;16.38;;;14.60;87.70;;;;;;4956958;28;20078;-81
2022/09/12 02:37:24;;;;;;;17.60;14.70;;;14.60;87.70;;;;;;4959550;28;20431;-80
2022/09/12 02:39:54;;;;;;;18.73;16.73;;;14.60;87.90;;;;;;4974471;28;20039;-80
2022/09/12 02:42:20;;;;;;;20.30;16.40;;;14.60;87.80;;;;;;4978286;28;20026;-80
2022/09/12 02:44:45;;;;;;;18.65;15.88;;;14.60;87.80;;;;;;4979759;28;20450;-80
2022/09/12 02:47:19;;;;;;;17.20;15.07;;;14.50;87.80;;;;;;4978136;28;20046;-80
2022/09/12 02:49:45;;;;;;;17.65;15.15;;;14.60;87.70;;;;;;4978361;28;20044;-80
2022/09/12 02:52:11;;;;;;;18.75;14.90;;;14.60;87.80;;;;;;4977691;28;20037;-80
2022/09/12 02:54:37;;;;;;;16.52;14.70;;;14.50;87.70;;;;;;4982215;28;20026;-80
2022/09/12 02:57:04;;;;;;;16.63;14.80;;;14.50;87.70;;;;;;4975191;28;20178;-80
2022/09/12 02:59:30;;;;;;;15.43;13.80;;;14.60;87.40;;;;;;4978638;28;20047;-80
2022/09/12 03:02:21;;;;;;;16.92;14.68;;;14.50;87.10;;;;;;4980683;28;20030;-80
2022/09/12 03:05:09;;;;;;;16.83;15.13;;;14.50;87.20;;;;;;4980044;28;20030;-80
2022/09/12 03:08:00;;;;;;;17.45;15.18;;;14.50;87.20;;;;;;4956776;28;20394;-80
2022/09/12 03:10:42;;;;;;;15.23;13.57;;;14.40;87.30;;;;;;4958951;28;20050;-79
2022/09/12 03:13:23;;;;;;;16.23;14.60;;;14.40;87.40;;;;;;4958070;28;20161;-79
2022/09/12 03:16:15;;;;;;;18.42;14.93;;;14.40;87.50;;;;;;4957365;28;20122;-80
2022/09/12 03:19:15;;;;;;;16.77;14.98;;;14.40;87.60;;;;;;4973687;28;20119;-80
2022/09/12 03:21:47;;;;;;;16.05;14.23;;;14.40;87.70;;;;;;4981793;28;20058;-80
2022/09/12 03:24:23;;;;;;;15.98;14.25;;;14.40;87.60;;;;;;4976189;28;20087;-79
2022/09/12 03:27:12;;;;;;;18.52;14.23;;;14.30;87.70;;;;;;4975606;28;20036;-80
2022/09/12 03:29:39;;;;;;;17.25;15.13;;;14.30;87.60;;;;;;4978503;28;20387;-80
2022/09/12 03:32:04;;;;;;;18.23;14.50;;;14.20;87.70;;;;;;4978124;28;20041;-80
2022/09/12 03:34:30;;;;;;;18.92;15.13;;;14.20;87.70;;;;;;4978164;28;20467;-80
2022/09/12 03:36:56;;;;;;;19.30;15.70;;;14.20;87.70;;;;;;4977642;28;20079;-81
2022/09/12 03:39:23;;;;;;;16.70;14.30;;;14.20;87.80;;;;;;4977573;28;20057;-80
2022/09/12 03:41:49;;;;;;;18.42;14.70;;;14.20;87.90;;;;;;4980336;28;20141;-79
2022/09/12 03:44:16;;;;;;;18.58;15.88;;;14.20;87.80;;;;;;4981746;28;20116;-80
2022/09/12 03:46:41;;;;;;;18.70;16.02;;;14.10;87.80;;;;;;4978636;28;20525;-80
2022/09/12 03:49:07;;;;;;;17.73;15.32;;;14.10;87.80;;;;;;4976034;28;20034;-80
2022/09/12 03:51:33;;;;;;;19.92;16.90;;;14.00;87.90;;;;;;4978680;28;20387;-78
2022/09/12 03:53:58;;;;;;;20.58;16.92;;;13.90;88.00;;;;;;4978229;28;20034;-79
2022/09/12 03:56:24;;;;;;;18.42;15.48;;;13.90;88.20;;;;;;4978234;28;20042;-80
2022/09/12 03:58:49;;;;;;;17.58;15.25;;;14.00;88.30;;;;;;4977057;28;20043;-80
2022/09/12 04:01:18;;;;;;;18.25;15.63;;;13.90;88.40;;;;;;4977154;28;20133;-80
2022/09/12 04:03:46;;;;;;;18.58;14.18;;;13.90;88.40;;;;;;4975289;28;20497;-80
2022/09/12 04:06:14;;;;;;;19.33;15.02;;;13.80;88.50;;;;;;4975470;28;20027;-80
2022/09/12 04:08:41;;;;;;;16.55;14.10;;;13.90;88.40;;;;;;4976794;28;20034;-80
2022/09/12 04:11:10;;;;;;;17.15;14.32;;;13.80;88.40;;;;;;4977465;28;20042;-80
2022/09/12 04:13:37;;;;;;;16.65;13.43;;;13.80;88.30;;;;;;4978252;28;20046;-80
2022/09/12 04:16:03;;;;;;;16.35;13.30;;;13.80;88.20;;;;;;4976766;28;20062;-80
2022/09/12 04:18:30;;;;;;;19.38;15.60;;;13.80;88.10;;;;;;4975964;28;20849;-80
2022/09/12 04:20:55;;;;;;;18.10;14.55;;;13.70;88.10;;;;;;4975482;28;20632;-80
2022/09/12 04:23:22;;;;;;;16.70;13.70;;;13.60;88.10;;;;;;4974504;28;20043;-80
2022/09/12 04:25:58;;;;;;;20.02;14.13;;;13.60;88.20;;;;;;4970405;28;20044;-80
2022/09/12 04:28:25;;;;;;;17.60;13.70;;;13.60;88.20;;;;;;4968605;28;20034;-80
2022/09/12 04:30:51;;;;;;;16.48;14.45;;;13.70;88.10;;;;;;4977237;28;20058;-79
2022/09/12 04:33:17;;;;;;;18.20;14.05;;;13.70;88.10;;;;;;4981841;28;20030;-80
2022/09/12 04:35:44;;;;;;;17.92;14.07;;;13.70;88.20;;;;;;4974579;28;20053;-80
2022/09/12 04:38:10;;;;;;;17.88;13.90;;;13.60;88.10;;;;;;4972694;28;20112;-80
2022/09/12 04:40:36;;;;;;;15.90;13.00;;;13.60;88.20;;;;;;4974368;28;20046;-80
2022/09/12 04:43:01;;;;;;;18.58;14.25;;;13.60;88.10;;;;;;4971401;28;20577;-79
2022/09/12 04:45:27;;;;;;;16.38;13.65;;;13.60;88.10;;;;;;4970150;28;20047;-80
2022/09/12 04:47:53;;;;;;;16.88;13.18;;;13.60;88.00;;;;;;4974158;28;20038;-80
2022/09/12 04:50:18;;;;;;;17.17;14.35;;;13.60;87.80;;;;;;4969605;28;20074;-79
2022/09/12 04:52:52;;;;;;;16.73;13.98;;;13.60;87.70;;;;;;4971087;28;20046;-80
2022/09/12 04:55:18;;;;;;;18.48;15.23;;;13.60;87.70;;;;;;4973977;28;20054;-79
2022/09/12 04:57:44;;;;;;;20.10;16.92;;;13.60;87.80;;;;;;4973188;28;20046;-80
2022/09/12 05:00:19;;;;;;;20.45;16.10;;;13.50;88.00;;;;;;4972739;28;20050;-80
2022/09/12 05:02:45;;;;;;;21.17;16.33;;;13.50;88.20;;;;;;4977243;28;20046;-80
2022/09/12 05:05:11;;;;;;;19.33;16.85;;;13.50;88.30;;;;;;4971033;28;20737;-80
2022/09/12 05:07:36;;;;;;;21.40;16.40;;;13.40;88.50;;;;;;4975909;28;20551;-80
2022/09/12 05:10:03;;;;;;;20.60;16.48;;;13.40;88.70;;;;;;4974707;28;20053;-80
2022/09/12 05:12:30;;;;;;;21.52;16.02;;;13.40;88.80;;;;;;4972054;28;20118;-80
2022/09/12 05:14:56;;;;;;;22.13;17.27;;;13.40;88.80;;;;;;4969219;28;20479;-80
2022/09/12 05:17:22;;;;;;;19.90;15.68;;;13.40;88.90;;;;;;4971678;28;20046;-80
2022/09/12 05:19:47;;;;;;;18.50;15.30;;;13.40;88.90;;;;;;4969638;28;20048;-80
2022/09/12 05:22:13;;;;;;;17.98;14.93;;;13.40;88.70;;;;;;4969311;28;20062;-80
2022/09/12 05:24:42;;;;;;;22.50;16.60;;;13.40;88.70;;;;;;4970857;28;20047;-80
2022/09/12 05:27:08;;;;;;;22.48;17.33;;;13.40;88.70;;;;;;4971058;28;20770;-81
2022/09/12 05:29:33;;;;;;;26.08;18.27;;;13.40;88.80;;;;;;4974137;28;20454;-80
2022/09/12 05:31:59;;;;;;;20.30;15.43;;;13.40;88.90;;;;;;4974610;28;20077;-80
2022/09/12 05:34:26;;;;;;;23.25;16.70;;;13.40;88.90;;;;;;4973172;28;20050;-81
2022/09/12 05:36:52;;;;;;;20.85;15.90;;;13.40;89.00;;;;;;4979478;28;20470;-80
2022/09/12 05:39:18;;;;;;;21.92;15.52;;;13.40;88.90;;;;;;4971684;28;20047;-80
2022/09/12 05:41:44;;;;;;;19.42;15.35;;;13.50;88.80;;;;;;4972943;28;20050;-80
2022/09/12 05:44:12;;;;;;;19.48;15.30;;;13.50;88.80;;;;;;4974345;28;20034;-81
2022/09/12 05:46:40;;;;;;;20.98;15.98;;;13.50;88.80;;;;;;4976253;28;20039;-79
2022/09/12 05:49:09;;;;;;;22.70;16.42;;;13.60;88.80;;;;;;4974562;28;20050;-81
2022/09/12 05:51:37;;;;;;;19.10;14.63;;;13.60;88.40;;;;;;4975796;28;20038;-85
2022/09/12 05:54:05;;;;;;;21.23;16.73;;;13.60;88.30;;;;;;4977674;28;20052;-84
2022/09/12 05:56:33;;;;;;;17.58;14.75;;;13.60;88.30;;;;;;4978424;28;20038;-85
2022/09/12 05:59:01;;;;;;;22.10;16.67;;;13.60;88.30;;;;;;4976857;28;20097;-85
2022/09/12 06:01:28;;;;;;;20.33;15.90;;;13.60;88.30;;;;;;4977118;28;20133;-86
2022/09/12 06:03:56;;;;;;;20.45;15.32;;;13.70;88.20;;;;;;4979607;28;20595;-82
2022/09/12 06:06:23;;;;;;;20.50;15.98;;;13.70;88.00;;;;;;4977063;28;20515;-80
2022/09/12 06:08:51;;;;;;;18.90;15.02;;;13.70;88.00;;;;;;4978390;28;20042;-80
2022/09/12 06:11:19;;;;;;;20.17;15.00;;;13.80;88.00;;;;;;4978433;28;20367;-83
2022/09/12 06:13:46;;;;;;;19.27;15.10;;;13.90;88.00;;;;;;4980662;28;20042;-82
2022/09/12 06:16:24;;;;;;;21.73;16.75;;;13.90;88.00;;;;;;4978564;28;20030;-81
2022/09/12 06:18:54;;;;;;;21.10;15.68;;;14.00;88.10;;;;;;4980922;28;20129;-87
2022/09/12 06:21:22;;;;;;;22.35;16.20;;;14.10;88.10;;;;;;4977546;28;20100;-76
2022/09/12 06:23:48;;;;;;;23.83;17.45;;;14.20;88.20;;;;;;4978651;28;20046;-76
2022/09/12 06:26:16;;;;;;;18.38;14.63;;;14.30;88.20;;;;;;4979668;28;20094;-77
2022/09/12 06:28:46;;;;;;;21.35;15.73;;;14.40;88.10;;;;;;4975860;28;20076;-77
2022/09/12 06:31:14;;;;;;;20.67;16.88;;;14.50;88.20;;;;;;4977915;28;20037;-76
2022/09/12 06:33:43;;;;;;;19.83;16.17;;;14.60;88.20;;;;;;4971916;28;20207;-76
2022/09/12 06:36:12;;;;;;;17.80;15.18;;;14.70;88.20;;;;;;4979329;28;20101;-76
2022/09/12 06:38:39;;;;;;;20.77;15.73;;;14.80;88.20;;;;;;4975541;28;20073;-77
2022/09/12 06:41:08;;;;;;;18.95;15.95;;;15.00;88.20;;;;;;4978522;28;20073;-76
2022/09/12 06:43:34;;;;;;;20.08;15.70;;;15.10;88.10;;;;;;4977865;28;20053;-78
2022/09/12 06:46:01;;;;;;;22.10;17.65;;;15.20;88.00;;;;;;4980773;28;20490;-77
2022/09/12 06:48:27;;;;;;;21.35;17.05;;;15.40;87.90;;;;;;4979702;28;20033;-78
2022/09/12 06:51:01;;;;;;;22.23;18.35;;;15.50;87.70;;;;;;4983790;28;20038;-77
2022/09/12 06:53:28;;;;;;;23.38;16.48;;;15.70;87.50;;;;;;4982163;28;20049;-77
2022/09/12 06:56:06;;;;;;;21.42;15.52;;;15.90;87.00;;;;;;4986511;28;20494;-77
2022/09/12 06:58:32;;;;;;;20.27;15.07;;;16.00;86.20;;;;;;4981698;28;20105;-77
2022/09/12 07:01:04;;;;;;;18.25;14.40;;;16.10;85.80;;;;;;4984306;28;20153;-77
2022/09/12 07:03:30;;;;;;;16.08;13.25;;;16.30;85.50;;;;;;4966091;28;20486;-77
2022/09/12 07:05:56;;;;;;;14.75;11.98;;;16.30;85.10;;;;;;4964329;28;20038;-77
2022/09/12 07:08:22;;;;;;;15.10;11.85;;;16.40;85.00;;;;;;4967103;28;20046;-78
2022/09/12 07:10:47;;;;;;;17.92;12.82;;;16.50;84.70;;;;;;4969172;28;20038;-77
2022/09/12 07:13:13;;;;;;;16.35;11.80;;;16.60;84.20;;;;;;4964977;28;20059;-78
2022/09/12 07:15:39;;;;;;;13.27;10.95;;;16.60;83.80;;;;;;4964535;28;20483;-78
2022/09/12 07:18:05;;;;;;;14.80;10.07;;;16.80;83.90;;;;;;4963784;28;20038;-79
2022/09/12 07:20:34;;;;;;;17.95;11.48;;;16.90;83.50;;;;;;4963563;28;20140;-79
2022/09/12 07:23:00;;;;;;;15.20;10.05;;;17.10;82.70;;;;;;4966087;28;20031;-79
2022/09/12 07:25:26;;;;;;;17.17;10.60;;;17.30;82.50;;;;;;4965706;28;20372;-78
2022/09/12 07:27:52;;;;;;;14.80;9.93;;;17.40;81.50;;;;;;4968426;28;20038;-79
2022/09/12 07:30:17;;;;;;;14.63;9.70;;;17.60;80.70;;;;;;4942619;28;20467;-79
2022/09/12 07:32:43;;;;;;;13.35;9.63;;;17.70;80.00;;;;;;4965437;28;20046;-78
2022/09/12 07:35:09;;;;;;;12.70;9.93;;;17.90;79.40;;;;;;4962424;28;20035;-78
2022/09/12 07:37:34;;;;;;;11.32;8.35;;;18.00;78.90;;;;;;4962144;28;20038;-77
2022/09/12 07:40:01;;;;;;;11.68;8.85;;;18.10;78.50;;;;;;4960260;28;20043;-79
2022/09/12 07:42:26;;;;;;;14.73;9.10;;;18.30;78.00;;;;;;4964310;28;20034;-78
2022/09/12 07:44:52;;;;;;;13.00;8.55;;;18.50;77.70;;;;;;4963332;28;20549;-79
2022/09/12 07:47:18;;;;;;;15.80;9.00;;;18.60;76.60;;;;;;4982357;28;20038;-79
2022/09/12 07:49:44;;;;;;;11.10;8.20;;;18.60;75.90;;;;;;4980267;28;20124;-75
2022/09/12 07:52:09;;;;;;;13.55;8.15;;;18.80;76.00;;;;;;4980482;28;20057;-76
2022/09/12 07:54:35;;;;;;;10.63;7.78;;;19.00;75.60;;;;;;4985403;28;20042;-77
2022/09/12 07:57:01;;;;;;;11.25;8.35;;;19.20;75.60;;;;;;4979897;28;20387;-77
2022/09/12 07:59:27;;;;;;;10.40;7.43;;;19.30;74.10;;;;;;4973124;28;20038;-78
2022/09/12 08:01:53;;;;;;;11.95;8.02;;;19.50;72.50;;;;;;4978950;28;20035;-77
2022/09/12 08:04:22;;;;;;;10.77;7.28;;;19.60;73.60;;;;;;4985832;28;20038;-77
2022/09/12 08:06:52;;;;;;;9.77;6.55;;;19.80;72.40;;;;;;4985164;28;20041;-77
2022/09/12 08:09:19;;;;;;;9.88;6.65;;;19.90;72.40;;;;;;4983025;28;20483;-76
2022/09/12 08:11:45;;;;;;;10.63;6.65;;;20.10;70.40;;;;;;4981903;28;20034;-76
2022/09/12 08:14:10;;;;;;;8.88;6.50;;;20.20;70.60;;;;;;4990199;28;20086;-76
2022/09/12 08:16:37;;;;;;;10.65;6.22;;;20.30;70.00;;;;;;4985820;28;20377;-75
2022/09/12 08:19:03;;;;;;;10.15;6.55;;;20.50;69.90;;;;;;4982303;28;20038;-78
2022/09/12 08:21:31;;;;;;;11.70;6.10;;;20.70;69.30;;;;;;4986498;28;20050;-76
2022/09/12 08:24:00;;;;;;;9.05;5.47;;;20.90;69.00;;;;;;4983025;28;20611;-77
2022/09/12 08:26:26;;;;;;;11.55;5.82;;;21.10;68.50;;;;;;4984278;28;20419;-78
2022/09/12 08:28:52;;;;;;;10.10;5.68;;;21.20;67.50;;;;;;4983193;28;20042;-79
2022/09/12 08:31:20;;;;;;;8.60;5.28;;;21.30;66.30;;;;;;4983584;28;20046;-79
2022/09/12 08:33:46;;;;;;;10.55;5.03;;;21.40;66.80;;;;;;4980181;28;20073;-79
2022/09/12 08:36:19;;;;;;;8.93;4.95;;;21.60;66.30;;;;;;4983424;28;20042;-78
2022/09/12 08:38:46;;;;;;;9.38;5.00;;;21.80;65.40;;;;;;4983325;28;20046;-78
2022/09/12 08:41:33;;;;;;;10.35;4.72;;;21.90;64.70;;;;;;4984978;28;20038;-78
2022/09/12 08:44:18;;;;;;;8.18;5.13;;;21.90;65.00;;;;;;4981237;28;20088;-78
2022/09/12 08:47:05;;;;;;;9.30;4.88;;;22.00;62.90;;;;;;4981262;28;20104;-78
2022/09/12 08:49:55;;;;;;;7.97;4.78;;;22.20;63.10;;;;;;4983395;28;20189;-77
2022/09/12 08:52:36;;;;;;;8.10;5.13;;;22.30;62.10;;;;;;4982224;28;20042;-77
2022/09/12 08:55:05;;;;;;;7.85;5.05;;;22.40;61.60;;;;;;4979342;28;20213;-78
2022/09/12 08:57:31;;;;;;;7.88;4.90;;;22.60;61.90;;;;;;4982469;28;20132;-78
2022/09/12 08:59:56;;;;;;;9.48;5.63;;;22.60;61.30;;;;;;4983684;28;20030;-78
2022/09/12 09:02:49;;;;;;;9.32;5.75;;;22.70;60.80;;;;;;4983891;28;20462;-80
2022/09/12 09:05:47;;;;;;;13.80;7.80;;;22.70;60.20;;;;;;4979721;28;20493;-80
2022/09/12 09:08:22;;;;;;;11.23;6.88;;;22.70;59.50;;;;;;4977895;28;20041;-79
2022/09/12 09:10:53;;;;;;;10.70;6.95;;;22.80;59.50;;;;;;4974570;28;20042;-82
2022/09/12 09:16:59;;;;;;;12.80;7.78;;;23.10;59.60;;;;;;4980462;28;20037;-78
2022/09/12 09:19:39;;;;;;;15.88;7.22;;;23.20;59.40;;;;;;4956674;28;20600;-79
2022/09/12 09:22:26;;;;;;;12.35;7.20;;;23.40;59.20;;;;;;4959273;28;20057;-82
2022/09/12 09:24:58;;;;;;;12.32;7.90;;;23.40;58.50;;;;;;4960771;28;20051;-82
2022/09/12 09:27:36;;;;;;;13.18;7.90;;;23.50;58.40;;;;;;4961681;28;20074;-81
2022/09/12 09:30:02;;;;;;;10.88;7.00;;;23.30;58.60;;;;;;4962453;28;20071;-79
2022/09/12 09:32:36;;;;;;;11.38;6.70;;;23.50;59.10;;;;;;4964374;28;20282;-81
2022/09/12 09:35:26;;;;;;;11.40;7.25;;;23.60;58.10;;;;;;4962076;28;20038;-81
2022/09/12 09:37:59;;;;;;;12.52;7.13;;;23.60;57.20;;;;;;4961502;28;20046;-82
2022/09/12 09:40:48;;;;;;;12.15;7.03;;;23.70;58.10;;;;;;4959742;28;20669;-82
2022/09/12 09:43:27;;;;;;;12.50;7.38;;;23.80;57.50;;;;;;4960678;28;20046;-81
2022/09/12 09:45:55;;;;;;;10.73;6.22;;;23.80;57.30;;;;;;4979258;28;20042;-82
2022/09/12 09:48:29;;;;;;;10.63;6.10;;;23.80;56.90;;;;;;4980807;28;20034;-81
2022/09/12 09:51:00;;;;;;;10.18;5.90;;;24.00;56.50;;;;;;4981191;28;20081;-82
2022/09/12 09:54:02;;;;;;;9.50;5.57;;;24.00;56.40;;;;;;4981010;28;20096;-80
2022/09/12 09:56:43;;;;;;;10.40;5.93;;;24.00;56.40;;;;;;4963367;28;20073;-78
2022/09/12 09:59:14;;;;;;;8.25;5.47;;;24.10;56.80;;;;;;4958147;28;20399;-76
2022/09/12 10:01:50;;;;;;;9.77;5.70;;;24.10;57.30;;;;;;4959164;28;20047;-79
2022/09/12 10:04:20;;;;;;;12.15;6.40;;;24.20;55.80;;;;;;4985953;28;20121;-77
2022/09/12 10:06:46;;;;;;;10.48;5.93;;;24.20;56.20;;;;;;4977123;28;20048;-79
2022/09/12 10:09:33;;;;;;;11.68;5.68;;;24.00;56.10;;;;;;4984797;28;20034;-77
2022/09/12 10:12:01;;;;;;;6.60;4.15;;;24.20;57.20;;;;;;4984651;28;20129;-77
2022/09/12 10:14:35;;;;;;;9.77;4.65;;;24.30;55.40;;;;;;4987940;28;20062;-79
2022/09/12 10:17:21;;;;;;;9.23;5.25;;;24.60;55.00;;;;;;4991264;28;20049;-79
2022/09/12 10:19:47;;;;;;;10.90;4.90;;;24.90;54.40;;;;;;4988589;28;20495;-79
2022/09/12 10:22:23;;;;;;;9.63;5.30;;;25.00;54.30;;;;;;4983795;28;20304;-80
2022/09/12 10:24:59;;;;;;;7.82;4.70;;;25.10;53.80;;;;;;4974513;28;20038;-78
2022/09/12 10:27:29;;;;;;;14.43;4.72;;;25.00;54.60;;;;;;4983559;28;20038;-79
2022/09/12 10:30:26;;;;;;;7.80;4.65;;;25.10;53.70;;;;;;4980547;28;20058;-79
2022/09/12 10:32:55;;;;;;;8.15;4.30;;;25.30;54.00;;;;;;4954350;28;20032;-78
2022/09/12 10:35:23;;;;;;;10.43;4.63;;;25.40;54.20;;;;;;4953363;28;20458;-79
2022/09/12 10:37:59;;;;;;;10.10;4.35;;;25.60;52.80;;;;;;4955237;28;20118;-81
2022/09/12 10:40:31;;;;;;;8.93;3.58;;;25.60;53.10;;;;;;4953831;28;20043;-79
2022/09/12 10:43:01;;;;;;;10.13;4.10;;;25.60;52.10;;;;;;4951842;28;20035;-79
2022/09/12 10:45:37;;;;;;;6.05;3.05;;;25.50;52.50;;;;;;4953798;28;20062;-77
2022/09/12 10:48:23;;;;;;;8.90;3.40;;;25.60;51.60;;;;;;4956477;28;20051;-77
2022/09/12 10:50:49;;;;;;;10.85;3.10;;;25.80;50.80;;;;;;4954803;28;20046;-78
2022/09/12 10:53:21;;;;;;;7.93;3.10;;;26.00;51.70;;;;;;4954194;28;20455;-79
2022/09/12 10:56:12;;;;;;;7.60;3.20;;;26.10;50.10;;;;;;4976070;28;20035;-77
2022/09/12 10:58:53;;;;;;;6.55;2.75;;;26.10;49.30;;;;;;4975861;28;20536;-79
2022/09/12 11:01:30;;;;;;;7.20;3.15;;;26.10;49.60;;;;;;4976614;28;20089;-78
2022/09/12 11:04:15;;;;;;;8.60;3.42;;;26.10;49.20;;;;;;4978098;28;20042;-78
2022/09/12 11:07:18;;;;;;;7.75;2.95;;;26.20;49.60;;;;;;4974565;28;20074;-78
2022/09/12 11:10:08;;;;;;;8.38;3.20;;;26.20;49.30;;;;;;4974612;28;20125;-78
2022/09/12 11:12:58;;;;;;;6.20;2.10;;;26.30;49.10;;;;;;4976149;28;20413;-78
2022/09/12 11:15:52;;;;;;;7.30;2.85;;;26.20;48.90;;;;;;4975833;28;20053;-78
2022/09/12 11:18:36;;;;;;;7.30;2.92;;;26.30;49.30;;;;;;4976724;28;20038;-78
2022/09/12 11:21:14;;;;;;;4.75;2.60;;;26.50;49.30;;;;;;4971195;28;20145;-78
2022/09/12 11:24:14;;;;;;;5.13;2.25;;;26.50;48.70;;;;;;4973991;28;20034;-78
2022/09/12 11:27:01;;;;;;;6.20;2.58;;;26.70;47.50;;;;;;4966387;28;20031;-79
2022/09/12 11:29:59;;;;;;;7.15;2.25;;;26.70;47.60;;;;;;4976835;28;20034;-78
2022/09/12 11:33:06;;;;;;;6.30;2.85;;;26.60;47.10;;;;;;4979526;28;20066;-76
2022/09/12 11:35:34;;;;;;;6.47;3.03;;;26.30;47.90;;;;;;4974098;28;20031;-77
2022/09/12 11:38:03;;;;;;;4.70;2.25;;;26.20;47.90;;;;;;4980560;28;20526;-76
2022/09/12 11:40:48;;;;;;;5.43;2.50;;;26.40;48.90;;;;;;4977361;28;20054;-77
2022/09/12 11:43:44;;;;;;;6.90;2.80;;;26.30;47.80;;;;;;4980256;28;20034;-78
2022/09/12 11:46:28;;;;;;;6.10;3.15;;;26.50;48.10;;;;;;4980003;28;20030;-78
2022/09/12 11:48:58;;;;;;;7.70;3.80;;;26.40;49.20;;;;;;4978924;28;20065;-77
2022/09/12 11:51:55;;;;;;;5.50;2.50;;;26.50;48.10;;;;;;4982599;28;20057;-77
2022/09/12 11:54:27;;;;;;;6.25;2.92;;;26.70;47.40;;;;;;4975951;28;20034;-77
2022/09/12 11:57:19;;;;;;;8.25;3.03;;;26.70;47.10;;;;;;4975139;28;20034;-77
2022/09/12 11:59:53;;;;;;;5.80;2.95;;;26.70;47.60;;;;;;4976172;28;20042;-78
2022/09/12 12:02:27;;;;;;;4.80;2.70;;;26.60;48.20;;;;;;4981710;28;20042;-78
2022/09/12 12:05:04;;;;;;;6.88;2.30;;;26.50;47.40;;;;;;4979115;28;20023;-78
2022/09/12 12:07:38;;;;;;;6.00;2.97;;;26.60;47.70;;;;;;4959270;28;20082;-78
2022/09/12 12:10:04;;;;;;;;;;;26.70;48.40;;;;;;4962422;28;20053;-78
2022/09/12 12:12:30;;;;;;;7.90;3.38;;;26.90;47.70;;;;;;4959009;28;20689;-78
2022/09/12 12:14:57;;;;;;;5.13;2.67;;;26.70;47.70;;;;;;4959390;28;20049;-78
2022/09/12 12:17:25;;;;;;;3.67;2.08;;;26.90;46.80;;;;;;4955800;28;20043;-77
2022/09/12 12:20:03;;;;;;;5.10;2.40;;;26.70;47.00;;;;;;4957665;28;20443;-78
2022/09/12 12:22:30;;;;;;;3.70;2.17;;;26.90;47.10;;;;;;4978390;28;20402;-78
2022/09/12 12:25:06;;;;;;;5.82;2.30;;;27.10;45.60;;;;;;4976287;28;20056;-78
2022/09/12 12:27:49;;;;;;;6.25;2.35;;;27.00;46.30;;;;;;4977554;28;20057;-78
2022/09/12 12:30:29;;;;;;;5.68;2.10;;;27.20;46.30;;;;;;4981731;28;20098;-79
2022/09/12 12:33:18;;;;;;;4.10;2.03;;;27.10;46.00;;;;;;4983171;28;20398;-78
2022/09/12 12:36:05;;;;;;;10.63;2.75;;;26.90;46.10;;;;;;4971031;28;20046;-76
2022/09/12 12:38:33;;;;;;;2.80;2.00;;;26.60;46.40;;;;;;4961479;28;20514;-79
2022/09/12 12:41:17;;;;;;;5.72;2.55;;;26.70;46.30;;;;;;4964092;28;20050;-77
2022/09/12 12:43:51;;;;;;;4.60;2.00;;;26.80;47.30;;;;;;4972512;28;20696;-80
2022/09/12 12:46:18;;;;;;;;;;;26.90;47.90;;;;;;4980793;28;20022;-77
2022/09/12 12:48:52;;;;;;;4.40;2.20;;;27.20;46.60;;;;;;4984484;28;19984;-79
2022/09/12 12:51:29;;;;;;;4.22;2.25;;;27.40;46.30;;;;;;4981314;28;20038;-78
2022/09/12 12:53:56;;;;;;;3.88;1.88;;;27.40;46.20;;;;;;4981839;28;20058;-77
2022/09/12 12:56:40;;;;;;;4.43;1.98;;;27.30;46.70;;;;;;4990106;28;20046;-79
2022/09/12 12:59:22;;;;;;;5.55;2.58;;;27.00;46.50;;;;;;4990235;28;20046;-79
2022/09/12 13:01:54;;;;;;;3.60;1.95;;;27.30;45.20;;;;;;4997319;28;20065;-80
2022/09/12 13:04:23;;;;;;;5.32;2.00;;;27.20;44.90;;;;;;4984783;28;20034;-79